sensor_id;sensor_type;location;lat;lon;timestamp;P1;durP1;ratioP1;P2;durP2;ratioP2
8675;SDS011;4375;52.486;13.424;2023-12-28T00:02:21;26.10;;;5.27;;
8675;SDS011;4375;52.486;13.424;2023-12-28T00:04:47;19.97;;;5.77;;
8675;SDS011;4375;52.486;13.424;2023-12-28T00:07:12;20.27;;;5.13;;
8675;SDS011;4375;52.486;13.424;2023-12-28T00:09:38;22.63;;;5.30;;
8675;SDS011;4375;52.486;13.424;2023-12-28T00:12:04;25.70;;;6.27;;
8675;SDS011;4375;52.486;13.424;2023-12-28T00:14:30;19.67;;;5.40;;
8675;SDS011;4375;52.486;13.424;2023-12-28T00:16:56;21.17;;;5.23;;
8675;SDS011;4375;52.486;13.424;2023-12-28T00:19:21;21.47;;;5.73;;
8675;SDS011;4375;52.486;13.424;2023-12-28T00:21:47;22.27;;;5.97;;
8675;SDS011;4375;52.486;13.424;2023-12-28T00:24:13;24.73;;;6.07;;
8675;SDS011;4375;52.486;13.424;2023-12-28T00:26:40;20.37;;;5.87;;
8675;SDS011;4375;52.486;13.424;2023-12-28T00:29:05;21.30;;;5.77;;
8675;SDS011;4375;52.486;13.424;2023-12-28T00:31:31;21.80;;;5.20;;
8675;SDS011;4375;52.486;13.424;2023-12-28T00:33:57;20.40;;;4.67;;
8675;SDS011;4375;52.486;13.424;2023-12-28T00:36:22;24.10;;;5.77;;
8675;SDS011;4375;52.486;13.424;2023-12-28T00:38:48;22.13;;;5.17;;
8675;SDS011;4375;52.486;13.424;2023-12-28T00:41:13;22.50;;;6.20;;
8675;SDS011;4375;52.486;13.424;2023-12-28T00:43:39;19.90;;;5.40;;
8675;SDS011;4375;52.486;13.424;2023-12-28T00:46:05;18.10;;;5.40;;
8675;SDS011;4375;52.486;13.424;2023-12-28T00:48:30;23.40;;;5.57;;
8675;SDS011;4375;52.486;13.424;2023-12-28T00:50:56;20.27;;;5.40;;
8675;SDS011;4375;52.486;13.424;2023-12-28T00:53:24;20.60;;;5.30;;
8675;SDS011;4375;52.486;13.424;2023-12-28T00:55:51;24.93;;;5.73;;
8675;SDS011;4375;52.486;13.424;2023-12-28T00:58:16;21.33;;;4.40;;
8675;SDS011;4375;52.486;13.424;2023-12-28T01:00:42;25.57;;;6.10;;
8675;SDS011;4375;52.486;13.424;2023-12-28T01:03:07;17.10;;;5.00;;
8675;SDS011;4375;52.486;13.424;2023-12-28T01:05:33;18.33;;;4.73;;
8675;SDS011;4375;52.486;13.424;2023-12-28T01:07:59;18.93;;;4.77;;
8675;SDS011;4375;52.486;13.424;2023-12-28T01:10:24;19.57;;;4.80;;
8675;SDS011;4375;52.486;13.424;2023-12-28T01:12:50;20.40;;;4.93;;
8675;SDS011;4375;52.486;13.424;2023-12-28T01:15:16;21.30;;;5.20;;
8675;SDS011;4375;52.486;13.424;2023-12-28T01:17:42;20.67;;;5.50;;
8675;SDS011;4375;52.486;13.424;2023-12-28T01:20:08;20.63;;;5.17;;
8675;SDS011;4375;52.486;13.424;2023-12-28T01:22:34;19.13;;;4.93;;
8675;SDS011;4375;52.486;13.424;2023-12-28T01:25:00;17.90;;;4.60;;
8675;SDS011;4375;52.486;13.424;2023-12-28T01:27:25;17.20;;;4.40;;
8675;SDS011;4375;52.486;13.424;2023-12-28T01:29:51;19.10;;;4.57;;
8675;SDS011;4375;52.486;13.424;2023-12-28T01:32:17;20.63;;;4.50;;
8675;SDS011;4375;52.486;13.424;2023-12-28T01:34:42;20.13;;;3.80;;
8675;SDS011;4375;52.486;13.424;2023-12-28T01:37:08;16.60;;;3.57;;
8675;SDS011;4375;52.486;13.424;2023-12-28T01:39:34;17.27;;;3.70;;
8675;SDS011;4375;52.486;13.424;2023-12-28T01:41:59;18.50;;;4.33;;
8675;SDS011;4375;52.486;13.424;2023-12-28T01:44:25;23.97;;;4.70;;
8675;SDS011;4375;52.486;13.424;2023-12-28T01:46:50;18.57;;;4.13;;
8675;SDS011;4375;52.486;13.424;2023-12-28T01:49:17;17.37;;;4.00;;
8675;SDS011;4375;52.486;13.424;2023-12-28T01:51:42;19.10;;;4.73;;
8675;SDS011;4375;52.486;13.424;2023-12-28T01:54:10;17.07;;;3.80;;
8675;SDS011;4375;52.486;13.424;2023-12-28T01:56:42;20.20;;;4.47;;
8675;SDS011;4375;52.486;13.424;2023-12-28T01:59:10;18.10;;;3.20;;
8675;SDS011;4375;52.486;13.424;2023-12-28T02:01:36;17.33;;;3.83;;
8675;SDS011;4375;52.486;13.424;2023-12-28T02:04:01;17.73;;;3.40;;
8675;SDS011;4375;52.486;13.424;2023-12-28T02:06:27;16.90;;;3.20;;
8675;SDS011;4375;52.486;13.424;2023-12-28T02:08:53;15.70;;;3.37;;
8675;SDS011;4375;52.486;13.424;2023-12-28T02:11:19;15.03;;;2.87;;
8675;SDS011;4375;52.486;13.424;2023-12-28T02:13:45;15.90;;;2.87;;
8675;SDS011;4375;52.486;13.424;2023-12-28T02:16:20;18.83;;;3.07;;
8675;SDS011;4375;52.486;13.424;2023-12-28T02:18:57;16.33;;;2.90;;
8675;SDS011;4375;52.486;13.424;2023-12-28T02:21:25;15.20;;;2.80;;
8675;SDS011;4375;52.486;13.424;2023-12-28T02:23:51;15.20;;;2.73;;
8675;SDS011;4375;52.486;13.424;2023-12-28T02:26:17;14.53;;;2.77;;
8675;SDS011;4375;52.486;13.424;2023-12-28T02:28:46;15.17;;;2.50;;
8675;SDS011;4375;52.486;13.424;2023-12-28T02:31:14;16.63;;;2.93;;
8675;SDS011;4375;52.486;13.424;2023-12-28T02:33:50;16.97;;;2.83;;
8675;SDS011;4375;52.486;13.424;2023-12-28T02:36:22;16.57;;;3.00;;
8675;SDS011;4375;52.486;13.424;2023-12-28T02:38:49;15.47;;;2.40;;
8675;SDS011;4375;52.486;13.424;2023-12-28T02:41:16;15.07;;;2.37;;
8675;SDS011;4375;52.486;13.424;2023-12-28T02:43:43;14.33;;;2.07;;
8675;SDS011;4375;52.486;13.424;2023-12-28T02:46:09;15.23;;;2.40;;
8675;SDS011;4375;52.486;13.424;2023-12-28T02:48:34;17.70;;;2.73;;
8675;SDS011;4375;52.486;13.424;2023-12-28T02:51:00;15.60;;;2.27;;
8675;SDS011;4375;52.486;13.424;2023-12-28T02:53:26;15.07;;;2.10;;
8675;SDS011;4375;52.486;13.424;2023-12-28T02:55:51;14.80;;;2.17;;
8675;SDS011;4375;52.486;13.424;2023-12-28T02:58:17;13.57;;;1.83;;
8675;SDS011;4375;52.486;13.424;2023-12-28T03:00:42;14.73;;;2.37;;
8675;SDS011;4375;52.486;13.424;2023-12-28T03:03:08;15.87;;;2.33;;
8675;SDS011;4375;52.486;13.424;2023-12-28T03:05:34;17.13;;;2.63;;
8675;SDS011;4375;52.486;13.424;2023-12-28T03:07:59;15.87;;;2.47;;
8675;SDS011;4375;52.486;13.424;2023-12-28T03:10:25;16.33;;;2.83;;
8675;SDS011;4375;52.486;13.424;2023-12-28T03:12:50;16.00;;;2.67;;
8675;SDS011;4375;52.486;13.424;2023-12-28T03:15:16;16.13;;;1.93;;
8675;SDS011;4375;52.486;13.424;2023-12-28T03:17:42;14.20;;;2.40;;
8675;SDS011;4375;52.486;13.424;2023-12-28T03:20:07;16.00;;;2.47;;
8675;SDS011;4375;52.486;13.424;2023-12-28T03:22:34;14.67;;;2.10;;
8675;SDS011;4375;52.486;13.424;2023-12-28T03:25:00;14.50;;;2.37;;
8675;SDS011;4375;52.486;13.424;2023-12-28T03:27:26;15.00;;;2.20;;
8675;SDS011;4375;52.486;13.424;2023-12-28T03:29:51;14.83;;;2.23;;
8675;SDS011;4375;52.486;13.424;2023-12-28T03:32:17;14.30;;;2.10;;
8675;SDS011;4375;52.486;13.424;2023-12-28T03:34:42;15.50;;;2.47;;
8675;SDS011;4375;52.486;13.424;2023-12-28T03:37:08;15.20;;;2.30;;
8675;SDS011;4375;52.486;13.424;2023-12-28T03:39:36;15.33;;;2.50;;
8675;SDS011;4375;52.486;13.424;2023-12-28T03:42:02;15.63;;;2.30;;
8675;SDS011;4375;52.486;13.424;2023-12-28T03:44:27;14.93;;;2.27;;
8675;SDS011;4375;52.486;13.424;2023-12-28T03:46:53;15.13;;;2.30;;
8675;SDS011;4375;52.486;13.424;2023-12-28T03:49:19;16.53;;;2.50;;
8675;SDS011;4375;52.486;13.424;2023-12-28T03:51:46;14.90;;;2.13;;
8675;SDS011;4375;52.486;13.424;2023-12-28T03:54:15;18.20;;;2.20;;
8675;SDS011;4375;52.486;13.424;2023-12-28T03:56:42;15.67;;;2.17;;
8675;SDS011;4375;52.486;13.424;2023-12-28T03:59:08;14.60;;;2.17;;
8675;SDS011;4375;52.486;13.424;2023-12-28T04:01:34;16.00;;;2.80;;
8675;SDS011;4375;52.486;13.424;2023-12-28T04:04:00;17.03;;;2.20;;
8675;SDS011;4375;52.486;13.424;2023-12-28T04:06:26;16.30;;;2.20;;
8675;SDS011;4375;52.486;13.424;2023-12-28T04:08:52;14.93;;;1.80;;
8675;SDS011;4375;52.486;13.424;2023-12-28T04:11:17;14.87;;;2.30;;
8675;SDS011;4375;52.486;13.424;2023-12-28T04:13:43;16.63;;;2.20;;
8675;SDS011;4375;52.486;13.424;2023-12-28T04:16:11;14.40;;;1.90;;
8675;SDS011;4375;52.486;13.424;2023-12-28T04:18:38;15.60;;;1.90;;
8675;SDS011;4375;52.486;13.424;2023-12-28T04:21:03;15.93;;;2.10;;
8675;SDS011;4375;52.486;13.424;2023-12-28T04:23:32;16.93;;;2.07;;
8675;SDS011;4375;52.486;13.424;2023-12-28T04:25:58;17.10;;;1.97;;
8675;SDS011;4375;52.486;13.424;2023-12-28T04:28:24;19.60;;;2.10;;
8675;SDS011;4375;52.486;13.424;2023-12-28T04:30:49;14.77;;;1.80;;
8675;SDS011;4375;52.486;13.424;2023-12-28T04:33:16;14.23;;;1.87;;
8675;SDS011;4375;52.486;13.424;2023-12-28T04:35:43;15.07;;;2.40;;
8675;SDS011;4375;52.486;13.424;2023-12-28T04:38:09;14.27;;;2.13;;
8675;SDS011;4375;52.486;13.424;2023-12-28T04:40:35;14.70;;;1.90;;
8675;SDS011;4375;52.486;13.424;2023-12-28T04:43:00;15.17;;;2.37;;
8675;SDS011;4375;52.486;13.424;2023-12-28T04:45:26;14.40;;;2.10;;
8675;SDS011;4375;52.486;13.424;2023-12-28T04:47:52;15.83;;;2.17;;
8675;SDS011;4375;52.486;13.424;2023-12-28T04:50:18;16.60;;;1.90;;
8675;SDS011;4375;52.486;13.424;2023-12-28T04:52:43;15.43;;;2.57;;
8675;SDS011;4375;52.486;13.424;2023-12-28T04:55:09;15.20;;;2.50;;
8675;SDS011;4375;52.486;13.424;2023-12-28T04:57:35;15.03;;;2.23;;
8675;SDS011;4375;52.486;13.424;2023-12-28T05:00:00;16.57;;;2.40;;
8675;SDS011;4375;52.486;13.424;2023-12-28T05:02:26;15.67;;;2.13;;
8675;SDS011;4375;52.486;13.424;2023-12-28T05:04:52;14.10;;;2.00;;
8675;SDS011;4375;52.486;13.424;2023-12-28T05:07:17;14.50;;;2.17;;
8675;SDS011;4375;52.486;13.424;2023-12-28T05:09:43;14.60;;;1.90;;
8675;SDS011;4375;52.486;13.424;2023-12-28T05:12:09;14.67;;;1.80;;
8675;SDS011;4375;52.486;13.424;2023-12-28T05:14:34;14.40;;;2.00;;
8675;SDS011;4375;52.486;13.424;2023-12-28T05:17:00;14.90;;;2.50;;
8675;SDS011;4375;52.486;13.424;2023-12-28T05:19:26;14.47;;;2.30;;
8675;SDS011;4375;52.486;13.424;2023-12-28T05:21:51;14.87;;;1.80;;
8675;SDS011;4375;52.486;13.424;2023-12-28T05:24:17;15.37;;;2.13;;
8675;SDS011;4375;52.486;13.424;2023-12-28T05:26:42;15.07;;;1.83;;
8675;SDS011;4375;52.486;13.424;2023-12-28T05:29:08;15.40;;;2.10;;
8675;SDS011;4375;52.486;13.424;2023-12-28T05:31:34;15.37;;;2.07;;
8675;SDS011;4375;52.486;13.424;2023-12-28T05:33:59;15.03;;;2.10;;
8675;SDS011;4375;52.486;13.424;2023-12-28T05:36:25;15.00;;;1.90;;
8675;SDS011;4375;52.486;13.424;2023-12-28T05:38:50;15.97;;;2.30;;
8675;SDS011;4375;52.486;13.424;2023-12-28T05:41:16;14.70;;;2.20;;
8675;SDS011;4375;52.486;13.424;2023-12-28T05:43:42;15.10;;;2.10;;
8675;SDS011;4375;52.486;13.424;2023-12-28T05:46:07;16.30;;;2.17;;
8675;SDS011;4375;52.486;13.424;2023-12-28T05:48:33;13.40;;;1.67;;
8675;SDS011;4375;52.486;13.424;2023-12-28T05:50:59;15.87;;;2.17;;
8675;SDS011;4375;52.486;13.424;2023-12-28T05:53:25;15.10;;;2.40;;
8675;SDS011;4375;52.486;13.424;2023-12-28T05:55:51;14.20;;;1.87;;
8675;SDS011;4375;52.486;13.424;2023-12-28T05:58:17;15.30;;;1.90;;
8675;SDS011;4375;52.486;13.424;2023-12-28T06:00:43;14.30;;;2.07;;
8675;SDS011;4375;52.486;13.424;2023-12-28T06:03:08;15.30;;;2.23;;
8675;SDS011;4375;52.486;13.424;2023-12-28T06:05:34;14.63;;;2.20;;
8675;SDS011;4375;52.486;13.424;2023-12-28T06:08:00;14.70;;;2.23;;
8675;SDS011;4375;52.486;13.424;2023-12-28T06:10:25;14.63;;;1.90;;
8675;SDS011;4375;52.486;13.424;2023-12-28T06:12:51;13.50;;;1.70;;
8675;SDS011;4375;52.486;13.424;2023-12-28T06:15:16;14.47;;;1.63;;
8675;SDS011;4375;52.486;13.424;2023-12-28T06:17:42;14.47;;;1.93;;
8675;SDS011;4375;52.486;13.424;2023-12-28T06:20:08;14.97;;;2.13;;
8675;SDS011;4375;52.486;13.424;2023-12-28T06:22:37;15.90;;;1.70;;
8675;SDS011;4375;52.486;13.424;2023-12-28T06:25:03;16.20;;;2.20;;
8675;SDS011;4375;52.486;13.424;2023-12-28T06:27:29;15.00;;;2.10;;
8675;SDS011;4375;52.486;13.424;2023-12-28T06:29:55;14.10;;;2.00;;
8675;SDS011;4375;52.486;13.424;2023-12-28T06:32:21;14.67;;;2.03;;
8675;SDS011;4375;52.486;13.424;2023-12-28T06:34:47;15.17;;;2.30;;
8675;SDS011;4375;52.486;13.424;2023-12-28T06:37:13;14.00;;;1.80;;
8675;SDS011;4375;52.486;13.424;2023-12-28T06:39:39;14.43;;;2.00;;
8675;SDS011;4375;52.486;13.424;2023-12-28T06:42:04;13.87;;;1.90;;
8675;SDS011;4375;52.486;13.424;2023-12-28T06:44:30;16.10;;;2.00;;
8675;SDS011;4375;52.486;13.424;2023-12-28T06:46:56;15.80;;;2.37;;
8675;SDS011;4375;52.486;13.424;2023-12-28T06:49:21;14.30;;;1.70;;
8675;SDS011;4375;52.486;13.424;2023-12-28T06:51:47;15.60;;;2.07;;
8675;SDS011;4375;52.486;13.424;2023-12-28T06:54:16;15.13;;;2.07;;
8675;SDS011;4375;52.486;13.424;2023-12-28T06:56:42;15.33;;;1.90;;
8675;SDS011;4375;52.486;13.424;2023-12-28T06:59:07;13.93;;;1.80;;
8675;SDS011;4375;52.486;13.424;2023-12-28T07:01:39;15.20;;;2.00;;
8675;SDS011;4375;52.486;13.424;2023-12-28T07:04:05;14.10;;;1.90;;
8675;SDS011;4375;52.486;13.424;2023-12-28T07:06:31;15.07;;;2.30;;
8675;SDS011;4375;52.486;13.424;2023-12-28T07:08:57;14.50;;;2.17;;
8675;SDS011;4375;52.486;13.424;2023-12-28T07:11:22;17.13;;;2.07;;
8675;SDS011;4375;52.486;13.424;2023-12-28T07:13:48;14.10;;;1.90;;
8675;SDS011;4375;52.486;13.424;2023-12-28T07:16:14;14.97;;;2.60;;
8675;SDS011;4375;52.486;13.424;2023-12-28T07:18:40;16.47;;;2.10;;
8675;SDS011;4375;52.486;13.424;2023-12-28T07:21:06;18.60;;;2.20;;
8675;SDS011;4375;52.486;13.424;2023-12-28T07:23:34;14.10;;;1.90;;
8675;SDS011;4375;52.486;13.424;2023-12-28T07:26:00;14.20;;;2.33;;
8675;SDS011;4375;52.486;13.424;2023-12-28T07:28:26;17.23;;;2.50;;
8675;SDS011;4375;52.486;13.424;2023-12-28T07:30:53;15.40;;;2.10;;
8675;SDS011;4375;52.486;13.424;2023-12-28T07:33:19;14.20;;;2.07;;
8675;SDS011;4375;52.486;13.424;2023-12-28T07:35:45;16.30;;;2.43;;
8675;SDS011;4375;52.486;13.424;2023-12-28T07:38:11;16.13;;;2.43;;
8675;SDS011;4375;52.486;13.424;2023-12-28T07:40:36;15.10;;;2.30;;
8675;SDS011;4375;52.486;13.424;2023-12-28T07:43:02;13.63;;;1.80;;
8675;SDS011;4375;52.486;13.424;2023-12-28T07:45:28;14.50;;;2.00;;
8675;SDS011;4375;52.486;13.424;2023-12-28T07:47:54;14.03;;;1.97;;
8675;SDS011;4375;52.486;13.424;2023-12-28T07:50:20;15.73;;;2.70;;
8675;SDS011;4375;52.486;13.424;2023-12-28T07:52:46;14.13;;;2.10;;
8675;SDS011;4375;52.486;13.424;2023-12-28T07:55:12;15.90;;;2.40;;
8675;SDS011;4375;52.486;13.424;2023-12-28T07:57:38;14.83;;;2.50;;
8675;SDS011;4375;52.486;13.424;2023-12-28T08:00:04;14.57;;;2.37;;
8675;SDS011;4375;52.486;13.424;2023-12-28T08:02:30;16.93;;;2.40;;
8675;SDS011;4375;52.486;13.424;2023-12-28T08:04:56;15.10;;;2.13;;
8675;SDS011;4375;52.486;13.424;2023-12-28T08:07:21;15.57;;;2.30;;
8675;SDS011;4375;52.486;13.424;2023-12-28T08:09:47;14.57;;;2.30;;
8675;SDS011;4375;52.486;13.424;2023-12-28T08:12:13;14.93;;;2.00;;
8675;SDS011;4375;52.486;13.424;2023-12-28T08:14:38;14.00;;;2.13;;
8675;SDS011;4375;52.486;13.424;2023-12-28T08:17:04;15.13;;;1.97;;
8675;SDS011;4375;52.486;13.424;2023-12-28T08:19:30;17.23;;;2.50;;
8675;SDS011;4375;52.486;13.424;2023-12-28T08:21:55;15.40;;;2.30;;
8675;SDS011;4375;52.486;13.424;2023-12-28T08:24:21;14.60;;;2.27;;
8675;SDS011;4375;52.486;13.424;2023-12-28T08:26:46;15.40;;;2.20;;
8675;SDS011;4375;52.486;13.424;2023-12-28T08:29:12;14.50;;;2.33;;
8675;SDS011;4375;52.486;13.424;2023-12-28T08:31:38;14.53;;;2.00;;
8675;SDS011;4375;52.486;13.424;2023-12-28T08:34:03;14.17;;;2.43;;
8675;SDS011;4375;52.486;13.424;2023-12-28T08:36:29;17.90;;;2.23;;
8675;SDS011;4375;52.486;13.424;2023-12-28T08:38:55;15.43;;;2.53;;
8675;SDS011;4375;52.486;13.424;2023-12-28T08:41:20;15.60;;;2.27;;
8675;SDS011;4375;52.486;13.424;2023-12-28T08:43:48;15.17;;;2.10;;
8675;SDS011;4375;52.486;13.424;2023-12-28T08:46:15;14.50;;;2.23;;
8675;SDS011;4375;52.486;13.424;2023-12-28T08:48:41;16.27;;;2.30;;
8675;SDS011;4375;52.486;13.424;2023-12-28T08:51:07;13.80;;;2.00;;
8675;SDS011;4375;52.486;13.424;2023-12-28T08:53:34;15.30;;;2.53;;
8675;SDS011;4375;52.486;13.424;2023-12-28T08:56:00;14.57;;;2.57;;
8675;SDS011;4375;52.486;13.424;2023-12-28T08:58:25;16.07;;;2.87;;
8675;SDS011;4375;52.486;13.424;2023-12-28T09:00:51;14.27;;;2.03;;
8675;SDS011;4375;52.486;13.424;2023-12-28T09:03:17;14.37;;;2.37;;
8675;SDS011;4375;52.486;13.424;2023-12-28T09:05:42;14.90;;;2.50;;
8675;SDS011;4375;52.486;13.424;2023-12-28T09:08:08;15.83;;;2.87;;
8675;SDS011;4375;52.486;13.424;2023-12-28T09:10:34;15.10;;;2.47;;
8675;SDS011;4375;52.486;13.424;2023-12-28T09:12:59;20.27;;;2.50;;
8675;SDS011;4375;52.486;13.424;2023-12-28T09:15:25;15.33;;;2.53;;
8675;SDS011;4375;52.486;13.424;2023-12-28T09:17:50;18.63;;;2.50;;
8675;SDS011;4375;52.486;13.424;2023-12-28T09:20:17;15.30;;;2.50;;
8675;SDS011;4375;52.486;13.424;2023-12-28T09:22:44;15.23;;;2.30;;
8675;SDS011;4375;52.486;13.424;2023-12-28T09:25:10;15.83;;;3.10;;
8675;SDS011;4375;52.486;13.424;2023-12-28T09:27:36;15.87;;;2.73;;
8675;SDS011;4375;52.486;13.424;2023-12-28T09:30:02;19.43;;;2.30;;
8675;SDS011;4375;52.486;13.424;2023-12-28T09:32:28;16.53;;;2.80;;
8675;SDS011;4375;52.486;13.424;2023-12-28T09:34:54;14.93;;;2.67;;
8675;SDS011;4375;52.486;13.424;2023-12-28T09:37:19;15.30;;;2.80;;
8675;SDS011;4375;52.486;13.424;2023-12-28T09:39:45;15.77;;;2.43;;
8675;SDS011;4375;52.486;13.424;2023-12-28T09:42:20;15.97;;;2.40;;
8675;SDS011;4375;52.486;13.424;2023-12-28T09:44:56;15.07;;;2.53;;
8675;SDS011;4375;52.486;13.424;2023-12-28T09:47:22;16.43;;;2.57;;
8675;SDS011;4375;52.486;13.424;2023-12-28T09:49:47;15.40;;;2.33;;
8675;SDS011;4375;52.486;13.424;2023-12-28T09:52:13;15.93;;;2.70;;
8675;SDS011;4375;52.486;13.424;2023-12-28T09:54:39;15.43;;;2.63;;
8675;SDS011;4375;52.486;13.424;2023-12-28T09:57:05;16.90;;;3.40;;
8675;SDS011;4375;52.486;13.424;2023-12-28T09:59:31;17.07;;;3.47;;
8675;SDS011;4375;52.486;13.424;2023-12-28T10:01:58;15.07;;;2.60;;
8675;SDS011;4375;52.486;13.424;2023-12-28T10:04:28;15.43;;;2.70;;
8675;SDS011;4375;52.486;13.424;2023-12-28T10:06:54;20.10;;;3.10;;
8675;SDS011;4375;52.486;13.424;2023-12-28T10:09:20;14.80;;;2.50;;
8675;SDS011;4375;52.486;13.424;2023-12-28T10:11:46;16.67;;;2.77;;
8675;SDS011;4375;52.486;13.424;2023-12-28T10:14:12;17.10;;;3.03;;
8675;SDS011;4375;52.486;13.424;2023-12-28T10:16:41;14.53;;;2.70;;
8675;SDS011;4375;52.486;13.424;2023-12-28T10:19:07;15.93;;;2.70;;
8675;SDS011;4375;52.486;13.424;2023-12-28T10:21:33;16.60;;;2.80;;
8675;SDS011;4375;52.486;13.424;2023-12-28T10:23:59;15.90;;;2.93;;
8675;SDS011;4375;52.486;13.424;2023-12-28T10:26:25;16.47;;;2.93;;
8675;SDS011;4375;52.486;13.424;2023-12-28T10:28:56;16.37;;;3.70;;
8675;SDS011;4375;52.486;13.424;2023-12-28T10:31:25;19.00;;;2.93;;
8675;SDS011;4375;52.486;13.424;2023-12-28T10:33:51;15.30;;;2.70;;
8675;SDS011;4375;52.486;13.424;2023-12-28T10:36:17;15.50;;;3.13;;
8675;SDS011;4375;52.486;13.424;2023-12-28T10:38:45;18.77;;;2.93;;
8675;SDS011;4375;52.486;13.424;2023-12-28T10:41:12;16.67;;;3.13;;
8675;SDS011;4375;52.486;13.424;2023-12-28T10:46:27;15.67;;;2.87;;
8675;SDS011;4375;52.486;13.424;2023-12-28T10:49:01;16.97;;;3.30;;
8675;SDS011;4375;52.486;13.424;2023-12-28T10:51:41;16.70;;;3.20;;
8675;SDS011;4375;52.486;13.424;2023-12-28T10:57:29;15.50;;;2.90;;
8675;SDS011;4375;52.486;13.424;2023-12-28T11:00:08;19.00;;;3.40;;
8675;SDS011;4375;52.486;13.424;2023-12-28T11:02:47;15.53;;;2.83;;
8675;SDS011;4375;52.486;13.424;2023-12-28T11:05:20;15.10;;;2.47;;
8675;SDS011;4375;52.486;13.424;2023-12-28T11:07:47;15.73;;;2.73;;
8675;SDS011;4375;52.486;13.424;2023-12-28T11:10:14;16.83;;;2.90;;
8675;SDS011;4375;52.486;13.424;2023-12-28T11:12:42;15.07;;;2.90;;
8675;SDS011;4375;52.486;13.424;2023-12-28T11:15:08;15.70;;;2.93;;
8675;SDS011;4375;52.486;13.424;2023-12-28T11:17:36;15.53;;;2.80;;
8675;SDS011;4375;52.486;13.424;2023-12-28T11:20:02;16.13;;;3.13;;
8675;SDS011;4375;52.486;13.424;2023-12-28T11:22:30;17.70;;;3.00;;
8675;SDS011;4375;52.486;13.424;2023-12-28T11:24:57;16.50;;;2.73;;
8675;SDS011;4375;52.486;13.424;2023-12-28T11:27:24;16.43;;;2.67;;
8675;SDS011;4375;52.486;13.424;2023-12-28T11:29:51;16.20;;;2.90;;
8675;SDS011;4375;52.486;13.424;2023-12-28T11:32:17;18.70;;;2.80;;
8675;SDS011;4375;52.486;13.424;2023-12-28T11:34:45;16.07;;;2.83;;
8675;SDS011;4375;52.486;13.424;2023-12-28T11:37:22;17.80;;;2.90;;
8675;SDS011;4375;52.486;13.424;2023-12-28T11:39:51;16.37;;;2.90;;
8675;SDS011;4375;52.486;13.424;2023-12-28T11:42:20;14.57;;;2.43;;
8675;SDS011;4375;52.486;13.424;2023-12-28T11:44:47;19.20;;;2.80;;
8675;SDS011;4375;52.486;13.424;2023-12-28T11:47:21;14.43;;;2.43;;
8675;SDS011;4375;52.486;13.424;2023-12-28T11:49:50;18.63;;;2.50;;
8675;SDS011;4375;52.486;13.424;2023-12-28T11:52:26;16.33;;;2.70;;
8675;SDS011;4375;52.486;13.424;2023-12-28T11:54:53;16.60;;;2.50;;
8675;SDS011;4375;52.486;13.424;2023-12-28T11:57:19;15.70;;;2.60;;
8675;SDS011;4375;52.486;13.424;2023-12-28T11:59:45;15.70;;;2.70;;
8675;SDS011;4375;52.486;13.424;2023-12-28T12:02:12;15.20;;;2.67;;
8675;SDS011;4375;52.486;13.424;2023-12-28T12:04:39;15.27;;;2.70;;
8675;SDS011;4375;52.486;13.424;2023-12-28T12:07:04;15.33;;;2.67;;
8675;SDS011;4375;52.486;13.424;2023-12-28T12:09:30;15.30;;;2.37;;
8675;SDS011;4375;52.486;13.424;2023-12-28T12:12:01;14.70;;;2.50;;
8675;SDS011;4375;52.486;13.424;2023-12-28T12:14:28;16.43;;;2.93;;
8675;SDS011;4375;52.486;13.424;2023-12-28T12:16:55;14.70;;;2.60;;
8675;SDS011;4375;52.486;13.424;2023-12-28T12:19:24;16.67;;;3.00;;
8675;SDS011;4375;52.486;13.424;2023-12-28T12:21:54;15.70;;;2.80;;
8675;SDS011;4375;52.486;13.424;2023-12-28T12:24:20;16.97;;;2.83;;
8675;SDS011;4375;52.486;13.424;2023-12-28T12:26:46;17.83;;;2.93;;
8675;SDS011;4375;52.486;13.424;2023-12-28T12:29:13;16.13;;;2.70;;
8675;SDS011;4375;52.486;13.424;2023-12-28T12:31:39;15.87;;;2.80;;
8675;SDS011;4375;52.486;13.424;2023-12-28T12:34:10;16.23;;;3.20;;
8675;SDS011;4375;52.486;13.424;2023-12-28T12:36:36;16.30;;;3.10;;
8675;SDS011;4375;52.486;13.424;2023-12-28T12:39:02;16.13;;;2.30;;
8675;SDS011;4375;52.486;13.424;2023-12-28T12:41:32;17.73;;;2.43;;
8675;SDS011;4375;52.486;13.424;2023-12-28T12:43:58;19.90;;;3.00;;
8675;SDS011;4375;52.486;13.424;2023-12-28T12:46:24;15.50;;;2.30;;
8675;SDS011;4375;52.486;13.424;2023-12-28T12:48:56;14.63;;;2.43;;
8675;SDS011;4375;52.486;13.424;2023-12-28T12:51:23;14.77;;;3.10;;
8675;SDS011;4375;52.486;13.424;2023-12-28T12:53:49;15.80;;;2.70;;
8675;SDS011;4375;52.486;13.424;2023-12-28T12:56:15;16.60;;;3.20;;
8675;SDS011;4375;52.486;13.424;2023-12-28T12:58:43;16.23;;;2.77;;
8675;SDS011;4375;52.486;13.424;2023-12-28T13:01:11;16.13;;;2.73;;
8675;SDS011;4375;52.486;13.424;2023-12-28T13:03:37;14.53;;;2.20;;
8675;SDS011;4375;52.486;13.424;2023-12-28T13:06:03;14.40;;;2.20;;
8675;SDS011;4375;52.486;13.424;2023-12-28T13:08:29;15.00;;;2.13;;
8675;SDS011;4375;52.486;13.424;2023-12-28T13:10:55;15.20;;;2.53;;
8675;SDS011;4375;52.486;13.424;2023-12-28T13:13:20;16.07;;;3.20;;
8675;SDS011;4375;52.486;13.424;2023-12-28T13:15:46;17.30;;;2.90;;
8675;SDS011;4375;52.486;13.424;2023-12-28T13:18:12;17.20;;;2.50;;
8675;SDS011;4375;52.486;13.424;2023-12-28T13:20:38;16.13;;;2.63;;
8675;SDS011;4375;52.486;13.424;2023-12-28T13:23:03;14.53;;;2.30;;
8675;SDS011;4375;52.486;13.424;2023-12-28T13:25:29;16.00;;;2.73;;
8675;SDS011;4375;52.486;13.424;2023-12-28T13:27:55;15.53;;;2.60;;
8675;SDS011;4375;52.486;13.424;2023-12-28T13:30:20;14.00;;;2.17;;
8675;SDS011;4375;52.486;13.424;2023-12-28T13:32:47;14.93;;;2.30;;
8675;SDS011;4375;52.486;13.424;2023-12-28T13:35:12;16.47;;;2.67;;
8675;SDS011;4375;52.486;13.424;2023-12-28T13:37:38;16.63;;;2.43;;
8675;SDS011;4375;52.486;13.424;2023-12-28T13:40:04;15.57;;;2.20;;
8675;SDS011;4375;52.486;13.424;2023-12-28T13:42:31;15.70;;;2.80;;
8675;SDS011;4375;52.486;13.424;2023-12-28T13:44:57;14.90;;;2.40;;
8675;SDS011;4375;52.486;13.424;2023-12-28T13:47:23;15.23;;;2.40;;
8675;SDS011;4375;52.486;13.424;2023-12-28T13:49:48;15.60;;;2.50;;
8675;SDS011;4375;52.486;13.424;2023-12-28T13:52:14;14.90;;;2.10;;
8675;SDS011;4375;52.486;13.424;2023-12-28T13:54:40;14.43;;;1.87;;
8675;SDS011;4375;52.486;13.424;2023-12-28T13:57:06;16.40;;;2.63;;
8675;SDS011;4375;52.486;13.424;2023-12-28T13:59:32;15.23;;;2.33;;
8675;SDS011;4375;52.486;13.424;2023-12-28T14:01:57;16.10;;;2.50;;
8675;SDS011;4375;52.486;13.424;2023-12-28T14:04:24;15.27;;;2.47;;
8675;SDS011;4375;52.486;13.424;2023-12-28T14:06:49;18.73;;;2.50;;
8675;SDS011;4375;52.486;13.424;2023-12-28T14:09:15;18.77;;;3.07;;
8675;SDS011;4375;52.486;13.424;2023-12-28T14:11:45;16.23;;;2.93;;
8675;SDS011;4375;52.486;13.424;2023-12-28T14:14:11;14.53;;;2.30;;
8675;SDS011;4375;52.486;13.424;2023-12-28T14:16:38;19.67;;;3.17;;
8675;SDS011;4375;52.486;13.424;2023-12-28T14:19:03;17.80;;;2.70;;
8675;SDS011;4375;52.486;13.424;2023-12-28T14:21:29;14.97;;;2.00;;
8675;SDS011;4375;52.486;13.424;2023-12-28T14:23:59;14.80;;;2.30;;
8675;SDS011;4375;52.486;13.424;2023-12-28T14:26:25;17.33;;;2.50;;
8675;SDS011;4375;52.486;13.424;2023-12-28T14:28:51;16.20;;;2.30;;
8675;SDS011;4375;52.486;13.424;2023-12-28T14:31:16;16.27;;;2.60;;
8675;SDS011;4375;52.486;13.424;2023-12-28T14:33:42;16.27;;;2.80;;
8675;SDS011;4375;52.486;13.424;2023-12-28T14:36:12;18.00;;;2.60;;
8675;SDS011;4375;52.486;13.424;2023-12-28T14:38:46;14.80;;;2.60;;
8675;SDS011;4375;52.486;13.424;2023-12-28T14:41:12;15.33;;;2.60;;
8675;SDS011;4375;52.486;13.424;2023-12-28T14:43:37;17.20;;;3.17;;
8675;SDS011;4375;52.486;13.424;2023-12-28T14:46:03;21.63;;;2.57;;
8675;SDS011;4375;52.486;13.424;2023-12-28T14:48:29;17.77;;;2.47;;
8675;SDS011;4375;52.486;13.424;2023-12-28T14:50:56;16.00;;;2.60;;